Time;durP1;ratioP1;P1;durP2;ratioP2;P2;SDS_P1;SDS_P2;PMS_P1;PMS_P2;Temp;Humidity;BMP_temperature;BMP_pressure;BME280_temperature;BME280_humidity;BME280_pressure;Samples;Min_cycle;Max_cycle;Signal;HPM_P1;HPM_P2
2023/04/22 00:01:26;;;;;;;4.25;2.42;;;;;;;;;;5043737;28;20131;-83
2023/04/22 00:03:52;;;;;;;5.47;2.60;;;;;;;;;;5039292;28;20029;-81
2023/04/22 00:06:18;;;;;;;4.13;2.17;;;;;;;;;;5029484;28;20035;-81
2023/04/22 00:08:44;;;;;;;4.95;2.38;;;;;;;;;;5043622;28;20025;-81
2023/04/22 00:11:10;;;;;;;5.13;2.70;;;;;;;;;;5029416;28;20044;-81
2023/04/22 00:13:36;;;;;;;5.65;2.83;;;;;;;;;;5037011;28;20045;-82
2023/04/22 00:16:05;;;;;;;4.35;2.45;;;;;;;;;;5036208;28;20527;-82
2023/04/22 00:18:33;;;;;;;6.20;2.05;;;;;;;;;;5034202;28;20037;-82
2023/04/22 00:20:59;;;;;;;5.32;2.90;;;;;;;;;;5023951;28;20037;-81
2023/04/22 00:23:25;;;;;;;3.72;2.47;;;;;;;;;;5025782;28;20022;-81
2023/04/22 00:25:51;;;;;;;4.03;1.80;;;;;;;;;;5037725;28;20044;-82
2023/04/22 00:28:17;;;;;;;4.50;1.85;;;;;;;;;;5035247;28;20024;-80
2023/04/22 00:30:43;;;;;;;7.88;2.30;;;;;;;;;;5029110;28;20127;-80
2023/04/22 00:33:09;;;;;;;4.78;2.13;;;;;;;;;;5027392;28;20143;-83
2023/04/22 00:35:35;;;;;;;3.67;2.30;;;;;;;;;;5038236;28;20108;-80
2023/04/22 00:38:01;;;;;;;4.88;2.40;;;;;;;;;;5020844;28;20033;-81
2023/04/22 00:40:27;;;;;;;4.07;2.30;;;;;;;;;;5026896;28;20048;-83
2023/04/22 00:42:54;;;;;;;4.53;1.88;;;;;;;;;;5034048;28;20032;-81
2023/04/22 00:45:20;;;;;;;4.35;2.03;;;;;;;;;;5027472;28;20033;-83
2023/04/22 00:47:47;;;;;;;9.48;1.60;;;;;;;;;;5031229;28;20025;-81
2023/04/22 00:50:13;;;;;;;3.78;1.90;;;;;;;;;;5022477;28;20045;-81
2023/04/22 00:52:39;;;;;;;3.45;1.83;;;;;;;;;;5033895;28;20028;-81
2023/04/22 00:55:05;;;;;;;3.45;1.60;;;;;;;;;;5036912;28;20135;-81
2023/04/22 00:57:32;;;;;;;3.47;2.17;;;;;;;;;;5032250;28;20071;-81
2023/04/22 00:59:58;;;;;;;5.43;2.15;;;;;;;;;;5018548;28;20029;-82
2023/04/22 01:02:24;;;;;;;5.85;2.13;;;;;;;;;;5019977;28;20421;-80
2023/04/22 01:04:53;;;;;;;2.72;1.67;;;;;;;;;;5037401;28;20563;-81
2023/04/22 01:07:19;;;;;;;4.97;2.60;;;;;;;;;;5025954;28;20040;-81
2023/04/22 01:09:45;;;;;;;4.07;1.95;;;;;;;;;;5041555;28;20025;-82
2023/04/22 01:12:11;;;;;;;4.35;2.25;;;;;;;;;;5032824;28;20033;-82
2023/04/22 01:14:37;;;;;;;2.55;1.50;;;;;;;;;;5031787;28;20076;-83
2023/04/22 01:17:03;;;;;;;4.18;2.15;;;;;;;;;;5042194;28;20456;-83
2023/04/22 01:19:29;;;;;;;8.75;2.38;;;;;;;;;;5032811;28;20025;-82
2023/04/22 01:21:56;;;;;;;4.93;2.30;;;;;;;;;;5043827;28;20132;-82
2023/04/22 01:24:22;;;;;;;3.33;1.85;;;;;;;;;;5046050;28;20741;-82
2023/04/22 01:26:48;;;;;;;5.30;2.03;;;;;;;;;;5033738;28;20075;-83
2023/04/22 01:29:14;;;;;;;3.88;2.00;;;;;;;;;;5037338;28;20129;-82
2023/04/22 01:31:40;;;;;;;3.65;1.52;;;;;;;;;;5034615;28;20036;-82
2023/04/22 01:34:06;;;;;;;6.10;2.00;;;;;;;;;;5027691;28;20143;-82
2023/04/22 01:36:33;;;;;;;4.60;2.67;;;;;;;;;;5036083;28;20528;-81
2023/04/22 01:38:59;;;;;;;5.55;2.50;;;8.20;99.90;;;;;;5036395;28;20029;-82
2023/04/22 01:41:25;;;;;;;4.47;2.08;;;;;;;;;;5022722;28;20045;-83
2023/04/22 01:43:57;;;;;;;4.78;2.22;;;8.10;99.90;;;;;;5023294;28;20047;-82
2023/04/22 01:46:23;;;;;;;4.85;2.40;;;;;;;;;;5042526;28;20053;-81
2023/04/22 01:48:52;;;;;;;5.93;2.42;;;;;;;;;;5021745;28;20799;-81
2023/04/22 01:51:22;;;;;;;5.05;2.83;;;;;;;;;;5031546;28;20096;-82
2023/04/22 01:53:49;;;;;;;4.70;2.05;;;;;;;;;;5019616;28;20106;-82
2023/04/22 01:56:15;;;;;;;4.63;2.22;;;;;;;;;;5038081;28;20127;-81
2023/04/22 01:58:41;;;;;;;4.72;2.00;;;;;;;;;;5023933;28;20426;-83
2023/04/22 02:01:08;;;;;;;4.05;1.90;;;;;;;;;;5032475;28;20091;-81
2023/04/22 02:03:34;;;;;;;5.82;2.55;;;;;;;;;;5034856;28;20025;-81
2023/04/22 02:06:00;;;;;;;6.28;2.50;;;;;;;;;;5041006;28;20377;-80
2023/04/22 02:08:26;;;;;;;7.32;2.38;;;;;;;;;;5029983;28;20086;-82
2023/04/22 02:10:52;;;;;;;3.38;1.92;;;;;;;;;;5030759;28;22052;-81
2023/04/22 02:13:18;;;;;;;5.35;2.30;;;;;;;;;;5024435;28;20040;-80
2023/04/22 02:15:44;;;;;;;3.00;2.03;;;;;;;;;;5042554;28;20164;-81
2023/04/22 02:18:10;;;;;;;9.90;2.88;;;;;;;;;;5033647;28;20425;-81
2023/04/22 02:20:36;;;;;;;4.03;2.15;;;;;;;;;;5033277;28;20039;-83
2023/04/22 02:23:03;;;;;;;3.13;1.77;;;;;;;;;;5026581;28;20033;-81
2023/04/22 02:25:29;;;;;;;3.33;1.95;;;;;;;;;;5025865;28;20029;-82
2023/04/22 02:27:55;;;;;;;5.18;2.25;;;;;;;;;;5054064;28;20027;-82
2023/04/22 02:30:21;;;;;;;3.45;2.08;;;;;;;;;;5051562;28;20028;-83
2023/04/22 02:32:47;;;;;;;4.20;2.10;;;;;;;;;;5051301;28;20022;-80
2023/04/22 02:35:13;;;;;;;7.28;2.58;;;;;;;;;;5035663;28;20037;-82
2023/04/22 02:37:39;;;;;;;6.82;2.95;;;;;;;;;;5032465;28;20125;-83
2023/04/22 02:40:06;;;;;;;4.28;2.30;;;;;;;;;;5033507;28;20087;-82
2023/04/22 02:42:32;;;;;;;4.72;2.08;;;;;;;;;;5034212;28;20027;-83
2023/04/22 02:44:58;;;;;;;7.70;3.20;;;;;;;;;;5052339;28;20051;-83
2023/04/22 02:47:24;;;;;;;2.97;1.70;;;;;;;;;;5051034;28;20056;-83
2023/04/22 02:49:50;;;;;;;3.70;1.92;;;;;;;;;;5033294;28;20027;-81
2023/04/22 02:52:16;;;;;;;3.90;2.33;;;;;;;;;;5030297;28;20025;-80
2023/04/22 02:54:42;;;;;;;4.50;2.45;;;;;;;;;;5035316;28;22784;-83
2023/04/22 02:57:08;;;;;;;4.90;1.70;;;;;;;;;;5029137;28;20193;-81
2023/04/22 02:59:35;;;;;;;6.88;2.92;;;;;;;;;;5021537;28;20059;-82
2023/04/22 03:02:01;;;;;;;3.70;2.13;;;;;;;;;;5037116;28;20041;-80
2023/04/22 03:04:27;;;;;;;4.60;2.35;;;;;;;;;;5033201;28;20032;-81
2023/04/22 03:06:53;;;;;;;3.22;2.22;;;;;;;;;;5028230;28;20041;-81
2023/04/22 03:09:19;;;;;;;6.18;2.50;;;;;;;;;;5021941;28;20017;-81
2023/04/22 03:11:45;;;;;;;3.90;1.70;;;;;;;;;;5035139;28;20040;-81
2023/04/22 03:14:11;;;;;;;10.85;2.88;;;;;;;;;;5024091;28;20406;-82
2023/04/22 03:16:37;;;;;;;4.90;2.22;;;;;;;;;;5040668;28;20067;-82
2023/04/22 03:19:03;;;;;;;5.63;2.40;;;;;;;;;;5031776;28;20032;-82
2023/04/22 03:21:31;;;;;;;3.75;2.30;;;;;;;;;;5029324;28;20051;-83
2023/04/22 03:23:57;;;;;;;5.00;2.42;;;;;;;;;;5037700;28;20039;-80
2023/04/22 03:26:22;;;;;;;5.03;1.95;;;;;;;;;;5037039;28;20036;-82
2023/04/22 03:28:48;;;;;;;4.28;2.40;;;;;;;;;;5020476;28;20132;-80
2023/04/22 03:31:15;;;;;;;5.30;2.70;;;;;;;;;;5036958;28;20032;-83
2023/04/22 03:33:41;;;;;;;5.63;2.90;;;;;;;;;;5045800;28;20037;-82
2023/04/22 03:36:07;;;;;;;5.70;3.00;;;;;;;;;;5026206;28;20032;-81
2023/04/22 03:38:33;;;;;;;7.18;2.85;;;;;;;;;;5032492;28;20029;-81
2023/04/22 03:40:59;;;;;;;4.20;2.40;;;;;;;;;;5026038;28;20068;-83
2023/04/22 03:43:25;;;;;;;4.55;2.45;;;;;;;;;;5022491;28;20036;-81
2023/04/22 03:45:51;;;;;;;4.85;2.60;;;;;;;;;;5029307;28;20030;-81
2023/04/22 03:48:17;;;;;;;3.15;2.13;;;;;;;;;;5031373;28;20575;-82
2023/04/22 03:50:43;;;;;;;5.45;2.35;;;;;;;;;;5029636;28;20021;-81
2023/04/22 03:53:09;;;;;;;8.20;3.08;;;;;;;;;;5021876;28;20405;-81
2023/04/22 03:55:35;;;;;;;5.50;2.45;;;;;;;;;;5034531;28;20394;-81
2023/04/22 03:58:01;;;;;;;6.78;2.92;;;;;;;;;;5028483;28;20033;-82
2023/04/22 04:00:27;;;;;;;4.95;2.40;;;;;;;;;;5034723;28;20048;-81
2023/04/22 04:02:53;;;;;;;4.72;2.67;;;;;;;;;;5035589;28;20036;-80
2023/04/22 04:05:19;;;;;;;4.47;2.63;;;;;;;;;;5041536;28;20024;-82
2023/04/22 04:07:45;;;;;;;4.57;2.08;;;;;;;;;;5039474;28;20033;-81
2023/04/22 04:10:11;;;;;;;5.63;2.38;;;;;;;;;;5032255;28;20021;-83
2023/04/22 04:12:37;;;;;;;5.18;2.67;;;;;;;;;;5038247;28;20029;-82
2023/04/22 04:15:03;;;;;;;6.07;2.88;;;;;;;;;;5036198;28;20040;-80
2023/04/22 04:17:29;;;;;;;5.93;3.00;;;;;;;;;;5031020;28;20551;-82
2023/04/22 04:19:55;;;;;;;5.57;2.35;;;;;;;;;;5021882;28;20056;-83
2023/04/22 04:22:21;;;;;;;5.60;2.53;;;;;;;;;;5036884;28;20049;-80
2023/04/22 04:24:47;;;;;;;5.90;3.30;;;;;;;;;;5027494;28;20025;-81
2023/04/22 04:27:13;;;;;;;6.35;3.28;;;;;;;;;;5034698;28;20033;-83
2023/04/22 04:29:40;;;;;;;5.35;3.10;;;;;;;;;;5029988;28;20033;-82
2023/04/22 04:32:09;;;;;;;5.72;2.95;;;;;;;;;;5033688;28;20029;-82
2023/04/22 04:34:36;;;;;;;6.00;3.05;;;;;;;;;;5040042;28;20033;-79
2023/04/22 04:37:02;;;;;;;5.68;3.38;;;;;;;;;;5027927;28;20124;-82
2023/04/22 04:39:28;;;;;;;5.20;2.72;;;;;;;;;;5034332;28;20025;-82
2023/04/22 04:41:57;;;;;;;4.93;3.03;;;;;;;;;;5035799;28;20033;-81
2023/04/22 04:44:23;;;;;;;6.72;3.70;;;;;;;;;;5022643;28;20028;-82
2023/04/22 04:46:49;;;;;;;6.18;2.97;;;;;;;;;;5024400;28;20036;-81
2023/04/22 04:49:15;;;;;;;7.18;3.30;;;;;;;;;;5032535;28;20039;-82
2023/04/22 04:51:41;;;;;;;5.05;2.40;;;;;;;;;;5032822;28;20108;-81
2023/04/22 04:54:07;;;;;;;5.28;2.70;;;;;;;;;;5047980;28;20096;-82
2023/04/22 04:56:33;;;;;;;4.60;2.40;;;;;;;;;;5046941;28;20139;-81
2023/04/22 04:58:59;;;;;;;5.00;2.80;;;;;;;;;;5032176;28;20021;-82
2023/04/22 05:01:25;;;;;;;5.68;2.90;;;;;;;;;;5034716;28;20036;-83
2023/04/22 05:03:51;;;;;;;4.95;2.67;;;;;;;;;;5026523;28;20025;-83
2023/04/22 05:06:17;;;;;;;5.20;2.80;;;;;;;;;;5042913;28;20029;-81
2023/04/22 05:08:43;;;;;;;7.38;4.05;;;;;;;;;;5040338;28;20106;-84
2023/04/22 05:11:09;;;;;;;5.50;2.90;;;;;;;;;;5032961;28;20120;-85
2023/04/22 05:13:35;;;;;;;6.43;3.42;;;;;;;;;;5033325;28;20030;-82
2023/04/22 05:16:01;;;;;;;7.20;3.17;;;;;;;;;;5037137;28;20570;-84
2023/04/22 05:18:27;;;;;;;4.88;2.65;;;;;;;;;;5047056;28;20081;-83
2023/04/22 05:20:53;;;;;;;6.40;3.13;;;;;;;;;;5036818;28;20044;-83
2023/04/22 05:23:19;;;;;;;5.43;3.33;;;;;;;;;;5046371;28;20032;-83
2023/04/22 05:25:45;;;;;;;6.90;3.47;;;;;;;;;;5041838;28;20025;-84
2023/04/22 05:28:11;;;;;;;7.63;3.63;;;;;;;;;;5016452;28;20517;-83
2023/04/22 05:30:37;;;;;;;7.38;3.00;;;;;;;;;;5023776;28;20068;-83
2023/04/22 05:33:03;;;;;;;8.68;3.75;;;;;;;;;;5033580;28;20045;-84
2023/04/22 05:35:29;;;;;;;5.50;2.97;;;;;;;;;;5042567;28;20021;-83
2023/04/22 05:37:55;;;;;;;8.23;3.78;;;;;;;;;;5032354;28;20382;-82
2023/04/22 05:40:21;;;;;;;2.85;2.05;;;;;;;;;;5026619;28;20018;-82
2023/04/22 05:42:47;;;;;;;8.13;3.50;;;;;;;;;;5015943;28;20273;-82
2023/04/22 05:45:14;;;;;;;4.68;2.85;;;;;;;;;;5020380;28;20072;-82
2023/04/22 05:47:40;;;;;;;7.38;3.40;;;;;;;;;;5017254;28;20033;-83
2023/04/22 05:50:06;;;;;;;6.03;3.67;;;;;;;;;;5034828;28;20030;-82
2023/04/22 05:52:32;;;;;;;10.65;3.80;;;;;;;;;;5034804;28;20135;-82
2023/04/22 05:54:58;;;;;;;6.60;3.55;;;;;;;;;;5030117;28;20093;-84
2023/04/22 05:57:24;;;;;;;6.65;3.33;;;;;;;;;;5016824;28;20377;-83
2023/04/22 05:59:50;;;;;;;8.25;3.28;;;;;;;;;;5022730;28;20031;-83
2023/04/22 06:02:16;;;;;;;5.60;2.28;;;;;;;;;;5030672;28;20523;-81
2023/04/22 06:04:42;;;;;;;4.30;2.70;;;;;;;;;;5021457;28;20467;-83
2023/04/22 06:07:08;;;;;;;5.55;3.15;;;;;;;;;;5022066;28;20140;-82
2023/04/22 06:09:34;;;;;;;4.55;2.33;;;;;;;;;;5020228;28;20115;-82
2023/04/22 06:12:01;;;;;;;4.47;2.70;;;;;;;;;;5039336;28;20513;-81
2023/04/22 06:14:27;;;;;;;10.00;2.88;;;;;;;;;;5020029;28;20040;-82
2023/04/22 06:16:53;;;;;;;7.70;3.53;;;;;;;;;;5037555;28;20041;-83
2023/04/22 06:19:19;;;;;;;4.68;2.83;;;;;;;;;;5040383;28;20056;-82
2023/04/22 06:21:45;;;;;;;3.33;1.92;;;;;;;;;;5044018;28;20116;-81
2023/04/22 06:24:11;;;;;;;6.20;2.90;;;;;;;;;;5045426;28;20472;-80
2023/04/22 06:26:37;;;;;;;5.05;2.90;;;;;;;;;;5028724;28;20094;-82
2023/04/22 06:29:04;;;;;;;5.13;2.97;;;;;;;;;;5034468;28;20035;-81
2023/04/22 06:31:31;;;;;;;5.60;2.45;;;;;;;;;;5029707;28;20029;-81
2023/04/22 06:33:57;;;;;;;4.13;2.00;;;;;;;;;;5030222;28;20041;-82
2023/04/22 06:36:23;;;;;;;3.40;1.98;;;;;;;;;;5030788;28;20029;-82
2023/04/22 06:38:49;;;;;;;4.32;2.22;;;;;;;;;;5034880;28;20029;-86
2023/04/22 06:41:15;;;;;;;9.00;2.58;;;11.40;99.90;;;;;;5041129;28;20044;-82
2023/04/22 06:43:41;;;;;;;5.13;2.88;;;;;;;;;;5041244;28;20040;-83
2023/04/22 06:46:07;;;;;;;6.13;2.38;;;;;;;;;;5049911;28;20033;-85
2023/04/22 06:48:33;;;;;;;4.45;2.17;;;;;;;;;;5039289;28;20029;-83
2023/04/22 06:51:00;;;;;;;5.32;2.47;;;;;;;;;;5018862;28;20032;-84
2023/04/22 06:53:26;;;;;;;5.13;2.55;;;;;;;;;;5032410;28;20088;-82
2023/04/22 06:55:53;;;;;;;3.85;2.28;;;;;;;;;;5035491;28;20112;-82
2023/04/22 06:58:19;;;;;;;5.35;2.20;;;;;;;;;;5025723;28;20025;-81
2023/04/22 07:00:45;;;;;;;3.53;2.03;;;;;;;;;;5037442;28;20044;-82
2023/04/22 07:03:11;;;;;;;4.22;2.25;;;;;;;;;;5022139;28;20029;-83
2023/04/22 07:05:37;;;;;;;3.15;2.05;;;;;;;;;;5036900;28;20029;-84
2023/04/22 07:08:03;;;;;;;3.50;1.70;;;;;;;;;;5021247;28;20024;-84
2023/04/22 07:10:29;;;;;;;5.95;1.98;;;;;;;;;;5034986;28;20020;-85
2023/04/22 07:12:55;;;;;;;3.83;2.15;;;;;;;;;;5048971;28;20063;-84
2023/04/22 07:15:21;;;;;;;3.58;2.10;;;;;;;;;;5045600;28;20500;-83
2023/04/22 07:17:47;;;;;;;2.70;1.77;;;;;;;;;;5027067;28;20283;-85
2023/04/22 07:20:13;;;;;;;4.00;2.30;;;;;;;;;;5021512;28;20059;-86
2023/04/22 07:22:39;;;;;;;5.75;2.05;;;;;;;;;;5035524;28;20048;-84
2023/04/22 07:25:06;;;;;;;3.45;1.95;;;;;;;;;;5025087;28;20026;-82
2023/04/22 07:27:32;;;;;;;3.63;1.90;;;;;;;;;;5027991;28;20060;-84
2023/04/22 07:29:58;;;;;;;3.05;1.75;;;;;;;;;;5040593;28;20029;-83
2023/04/22 07:32:25;;;;;;;4.28;1.75;;;;;;;;;;5050754;28;20499;-84
2023/04/22 07:34:50;;;;;;;5.60;1.83;;;15.00;99.90;;;;;;5027012;28;20024;-84
2023/04/22 07:37:16;;;;;;;2.28;1.52;;;;;;;;;;5045984;28;20036;-86
2023/04/22 07:39:42;;;;;;;2.10;1.50;;;;;;;;;;5015976;28;20041;-85
2023/04/22 07:42:08;;;;;;;2.92;1.77;;;;;;;;;;5011395;28;20069;-84
2023/04/22 07:44:34;;;;;;;2.45;1.35;;;;;;;;;;5024798;28;20033;-84
2023/04/22 07:47:00;;;;;;;4.90;1.50;;;;;;;;;;5034804;28;20048;-84
2023/04/22 07:49:26;;;;;;;1.85;1.02;;;;;;;;;;5015969;28;22673;-83
2023/04/22 07:51:52;;;;;;;2.83;1.48;;;;;;;;;;5018655;28;20029;-84
2023/04/22 07:54:18;;;;;;;2.75;1.30;;;;;;;;;;5018605;28;20068;-84
2023/04/22 07:56:44;;;;;;;2.40;0.93;;;;;;;;;;5018576;28;20213;-85
2023/04/22 07:59:10;;;;;;;1.90;0.90;;;;;;;;;;5023518;28;20034;-84
2023/04/22 08:01:36;;;;;;;2.08;1.20;;;;;;;;;;5021863;28;20044;-85
2023/04/22 08:04:02;;;;;;;1.95;1.15;;;;;;;;;;5019427;28;20025;-85
2023/04/22 08:06:28;;;;;;;3.80;0.77;;;;;;;;;;5042487;28;20056;-84
2023/04/22 08:08:54;;;;;;;3.47;1.00;;;;;;;;;;5055453;28;20066;-82
2023/04/22 08:11:20;;;;;;;1.88;1.25;;;;;;;;;;5059269;28;20079;-85
2023/04/22 08:13:46;;;;;;;3.15;1.10;;;;;;;;;;5044381;28;20068;-82
2023/04/22 08:16:11;;;;;;;2.72;0.75;;;;;;;;;;5042947;28;20040;-82
2023/04/22 08:18:37;;;;;;;2.20;0.65;;;;;;;;;;5035225;28;20032;-84
2023/04/22 08:21:03;;;;;;;1.70;0.70;;;;;;;;;;5028242;28;20045;-83
2023/04/22 08:23:30;;;;;;;1.50;0.60;;;;;;;;;;5032387;28;20064;-84
2023/04/22 08:25:56;;;;;;;1.35;0.47;;;;;;;;;;5027962;28;20029;-83
2023/04/22 08:28:22;;;;;;;2.30;0.70;;;;;;;;;;5036618;28;20037;-85
2023/04/22 08:30:48;;;;;;;0.60;0.43;;;;;;;;;;5022190;28;20122;-84
2023/04/22 08:33:14;;;;;;;0.60;0.40;;;;;;;;;;5016309;28;20079;-83
2023/04/22 08:35:40;;;;;;;0.95;0.40;;;;;;;;;;5022110;28;20926;-83
2023/04/22 08:38:06;;;;;;;1.42;0.50;;;;;;;;;;5024885;28;20417;-85
2023/04/22 08:40:34;;;;;;;1.55;0.57;;;21.00;96.10;;;;;;5016913;28;20036;-84
2023/04/22 08:43:00;;;;;;;0.40;0.30;;;;;;;;;;5025921;28;20109;-83
2023/04/22 08:45:26;;;;;;;1.40;0.50;;;;;;;;;;5008790;28;20497;-82
2023/04/22 08:47:53;;;;;;;0.75;0.32;;;;;;;;;;5020102;28;20039;-82
2023/04/22 08:50:24;;;;;;;1.75;0.40;;;;;;;;;;5018188;28;20037;-83
2023/04/22 08:52:50;;;;;;;0.88;0.40;;;;;;;;;;5014479;28;20053;-84
2023/04/22 08:55:16;;;;;;;0.88;0.30;;;;;;;;;;5030818;28;20029;-83
2023/04/22 08:57:42;;;;;;;1.05;0.52;;;;;;;;;;5021860;28;20024;-83
2023/04/22 09:00:08;;;;;;;0.82;0.45;;;;;;;;;;5006008;28;20075;-85
2023/04/22 09:02:36;;;;;;;0.90;0.43;;;;;;;;;;5024414;28;20044;-84
2023/04/22 09:05:05;;;;;;;0.90;0.20;;;26.90;64.90;;;;;;5023770;28;20051;-83
2023/04/22 09:07:31;;;;;;;0.50;0.32;;;;;;;;;;5040147;28;20362;-83
2023/04/22 09:09:58;;;;;;;0.90;0.30;;;;;;;;;;5032116;28;21763;-82
2023/04/22 09:12:27;;;;;;;0.70;0.30;;;27.30;63.90;;;;;;5016733;28;20033;-83
2023/04/22 09:14:53;;;;;;;2.83;0.43;;;;;;;;;;5028298;28;20213;-83
2023/04/22 09:17:29;;;;;;;0.45;0.25;;;;;;;;;;5017452;28;20106;-83
2023/04/22 09:20:00;;;;;;;0.93;0.20;;;25.30;64.70;;;;;;5020198;28;20553;-82
2023/04/22 09:22:26;;;;;;;1.65;0.40;;;;;;;;;;5024034;28;20044;-82
2023/04/22 09:24:52;;;;;;;1.80;0.50;;;;;;;;;;5016625;28;20148;-83
2023/04/22 09:27:19;;;;;;;0.80;0.45;;;;;;;;;;5025895;28;20086;-83
2023/04/22 09:29:49;;;;;;;0.47;0.20;;;;;;;;;;5018010;28;20120;-84
2023/04/22 09:32:15;;;;;;;0.45;0.17;;;;;;;;;;5017242;28;20063;-83
2023/04/22 09:34:46;;;;;;;2.80;0.35;;;;;;;;;;5006701;28;20030;-84
2023/04/22 09:37:12;;;;;;;0.47;0.30;;;;;;;;;;5023555;28;20021;-85
2023/04/22 09:39:41;;;;;;;1.70;0.50;;;;;;;;;;5029827;28;20036;-83
2023/04/22 09:42:07;;;;;;;1.05;0.40;;;;;;;;;;5018842;28;22095;-85
2023/04/22 09:44:34;;;;;;;1.52;0.30;;;;;;;;;;5027516;28;20071;-84
2023/04/22 09:47:00;;;;;;;0.50;0.40;;;;;;;;;;5025641;28;20040;-84
2023/04/22 09:49:26;;;;;;;0.93;0.40;;;22.40;68.40;;;;;;5023153;28;20086;-84
2023/04/22 09:51:58;;;;;;;0.85;0.40;;;22.40;66.70;;;;;;5008931;28;20172;-82
2023/04/22 09:54:24;;;;;;;0.68;0.10;;;;;;;;;;5011068;28;20033;-83
2023/04/22 09:56:51;;;;;;;1.15;0.60;;;;;;;;;;5023723;28;20020;-84
2023/04/22 09:59:17;;;;;;;0.98;0.38;;;;;;;;;;5018483;28;20044;-85
2023/04/22 10:01:43;;;;;;;0.88;0.20;;;;;;;;;;5019206;28;20033;-84
2023/04/22 10:04:10;;;;;;;0.82;0.30;;;;;;;;;;5025284;28;20033;-81
2023/04/22 10:06:36;;;;;;;1.92;0.57;;;;;;;;;;5036193;28;20501;-84
2023/04/22 10:09:03;;;;;;;0.68;0.30;;;23.20;79.10;;;;;;5049407;28;20425;-82
2023/04/22 10:11:30;;;;;;;1.90;0.73;;;;;;;;;;5036275;28;20029;-80
2023/04/22 10:13:56;;;;;;;1.50;0.38;;;23.30;71.50;;;;;;5024180;28;20033;-82
2023/04/22 10:16:23;;;;;;;0.73;0.30;;;23.30;69.80;;;;;;5020961;28;20141;-82
2023/04/22 10:18:53;;;;;;;1.00;0.32;;;22.40;69.50;;;;;;5016997;28;20397;-81
2023/04/22 10:21:19;;;;;;;0.52;0.30;;;;;;;;;;5034742;28;20549;-84
2023/04/22 10:23:46;;;;;;;2.15;0.65;;;23.60;71.40;;;;;;5034296;28;20029;-82
2023/04/22 10:26:12;;;;;;;0.75;0.30;;;;;;;;;;5033486;28;20385;-81
2023/04/22 10:28:42;;;;;;;1.05;0.40;;;22.70;72.10;;;;;;5017473;28;20037;-83
2023/04/22 10:31:21;;;;;;;0.50;0.30;;;;;;;;;;5024986;28;20029;-81
2023/04/22 10:33:47;;;;;;;1.48;0.35;;;;;;;;;;5014150;28;20102;-82
2023/04/22 10:36:18;;;;;;;0.73;0.30;;;23.90;70.10;;;;;;5019352;28;20449;-83
2023/04/22 10:38:52;;;;;;;5.00;0.45;;;23.20;69.10;;;;;;5010813;28;20661;-83
2023/04/22 10:41:30;;;;;;;1.45;0.40;;;23.20;80.10;;;;;;5030679;28;20076;-81
2023/04/22 10:44:00;;;;;;;0.73;0.28;;;;;;;;;;5029926;28;20055;-83
2023/04/22 10:46:33;;;;;;;0.75;0.35;;;;;;;;;;5020188;28;20082;-81
2023/04/22 10:49:09;;;;;;;0.82;0.30;;;;;;;;;;5021237;28;22868;-82
2023/04/22 10:51:45;;;;;;;1.02;0.50;;;24.00;68.00;;;;;;5030563;28;20040;-81
2023/04/22 10:54:35;;;;;;;0.55;0.22;;;23.10;69.60;;;;;;5038410;28;20291;-80
2023/04/22 10:57:18;;;;;;;0.85;0.32;;;23.40;88.00;;;;;;5045336;28;20037;-80
2023/04/22 10:59:47;;;;;;;0.40;0.20;;;;;;;;;;5039896;28;20038;-82
2023/04/22 11:02:15;;;;;;;1.45;0.45;;;24.30;71.60;;;;;;5044193;28;20057;-81
2023/04/22 11:04:41;;;;;;;0.80;0.22;;;24.30;88.80;;;;;;5036965;28;20017;-80
2023/04/22 11:07:25;;;;;;;1.25;0.40;;;23.40;68.00;;;;;;5039941;28;20672;-80
2023/04/22 11:09:51;;;;;;;0.52;0.20;;;;;;;;;;5046094;28;20029;-81
2023/04/22 11:12:37;;;;;;;1.67;0.32;;;22.70;67.10;;;;;;5035694;28;20111;-82
2023/04/22 11:15:21;;;;;;;0.45;0.20;;;24.20;68.40;;;;;;5037561;28;20117;-82
2023/04/22 11:17:51;;;;;;;0.88;0.32;;;24.50;88.20;;;;;;5033385;28;20040;-82
2023/04/22 11:20:17;;;;;;;2.42;0.30;;;24.90;70.40;;;;;;5038420;28;20037;-83
2023/04/22 11:22:47;;;;;;;2.67;0.52;;;;;;;;;;5044077;28;20603;-83
2023/04/22 11:25:13;;;;;;;0.77;0.35;;;23.90;86.30;;;;;;5024637;28;20037;-83
2023/04/22 11:27:42;;;;;;;1.30;0.40;;;25.00;65.70;;;;;;5017664;28;20097;-83
2023/04/22 11:30:08;;;;;;;3.75;0.60;;;;;;;;;;5031815;28;22019;-83
2023/04/22 11:32:34;;;;;;;0.50;0.20;;;;;;;;;;5051708;28;20428;-81
2023/04/22 11:35:04;;;;;;;2.72;0.35;;;;;;;;;;5050307;28;20105;-83
2023/04/22 11:37:30;;;;;;;0.50;0.20;;;24.70;72.90;;;;;;5038155;28;20029;-82
2023/04/22 11:39:59;;;;;;;1.08;0.43;;;24.60;66.40;;;;;;5046762;28;20078;-83
2023/04/22 11:42:25;;;;;;;0.85;0.40;;;;;;;;;;5048081;28;20040;-83
2023/04/22 11:44:50;;;;;;;0.65;0.22;;;25.00;85.50;;;;;;5038851;28;20027;-82
2023/04/22 11:47:16;;;;;;;0.50;0.28;;;24.50;82.40;;;;;;5049418;28;20033;-83
2023/04/22 11:49:54;;;;;;;2.60;0.30;;;;;;;;;;5042323;28;20025;-83
2023/04/22 11:52:20;;;;;;;0.47;0.22;;;;;;;;;;5051494;28;20025;-83
2023/04/22 11:54:46;;;;;;;1.20;0.43;;;;;;;;;;5050372;28;20090;-81
2023/04/22 11:57:14;;;;;;;0.20;0.20;;;;;;;;;;5058856;28;20027;-80
2023/04/22 11:59:41;;;;;;;0.88;0.30;;;;;;;;;;5052244;28;20211;-81
2023/04/22 12:02:07;;;;;;;0.50;0.30;;;24.50;60.50;;;;;;5056954;28;20039;-82
2023/04/22 12:04:40;;;;;;;0.35;0.17;;;23.80;59.30;;;;;;5037344;28;20025;-81
2023/04/22 12:07:06;;;;;;;1.00;0.35;;;;;;;;;;5048917;28;20033;-81
2023/04/22 12:09:32;;;;;;;2.00;0.70;;;24.00;62.80;;;;;;5050990;28;20462;-81
2023/04/22 12:12:00;;;;;;;0.20;0.20;;;;;;;;;;5041102;28;20044;-81
2023/04/22 12:14:35;;;;;;;1.67;0.40;;;23.00;67.00;;;;;;5045981;28;20429;-82
2023/04/22 12:17:04;;;;;;;0.88;0.30;;;23.10;80.20;;;;;;5045463;28;20436;-82
2023/04/22 12:19:30;;;;;;;0.50;0.40;;;;;;;;;;5048463;28;20025;-82
2023/04/22 12:21:56;;;;;;;0.50;0.30;;;;;;;;;;5037817;28;20043;-80
2023/04/22 12:24:28;;;;;;;3.15;0.25;;;23.70;58.10;;;;;;5043781;28;20017;-81
2023/04/22 12:26:54;;;;;;;1.10;0.50;;;;;;;;;;5050597;28;20499;-82
2023/04/22 12:29:29;;;;;;;1.52;0.30;;;24.00;58.40;;;;;;5037246;28;20079;-82
2023/04/22 12:31:56;;;;;;;0.60;0.30;;;;;;;;;;5048781;28;20080;-80
2023/04/22 12:34:22;;;;;;;1.20;0.40;;;;;;;;;;5043895;28;20681;-81
2023/04/22 12:36:48;;;;;;;0.82;0.45;;;24.20;66.60;;;;;;5044582;28;20119;-81
2023/04/22 12:39:14;;;;;;;1.35;0.32;;;;;;;;;;5041492;28;20021;-81
2023/04/22 12:41:40;;;;;;;1.83;0.30;;;;;;;;;;5049823;28;20029;-82
2023/04/22 12:44:07;;;;;;;1.92;0.50;;;;;;;;;;5024529;28;20021;-82
2023/04/22 12:46:33;;;;;;;0.60;0.22;;;;;;;;;;5041355;28;20029;-81
2023/04/22 12:48:59;;;;;;;0.45;0.20;;;;;;;;;;5043507;28;20548;-82
2023/04/22 12:51:26;;;;;;;0.88;0.38;;;;;;;;;;5042242;28;20043;-80
2023/04/22 12:53:52;;;;;;;1.35;0.40;;;;;;;;;;5048041;28;20125;-81
2023/04/22 12:56:18;;;;;;;2.03;0.52;;;;;;;;;;5035552;28;20599;-83
2023/04/22 12:58:44;;;;;;;1.15;0.40;;;;;;;;;;5035090;28;20018;-81
2023/04/22 13:01:10;;;;;;;0.93;0.40;;;;;;;;;;5039810;28;20084;-80
2023/04/22 13:03:36;;;;;;;0.52;0.20;;;;;;;;;;5043898;28;20122;-82
2023/04/22 13:06:02;;;;;;;0.70;0.30;;;;;;;;;;5042457;28;20037;-82
2023/04/22 13:08:28;;;;;;;0.60;0.38;;;;;;;;;;5039605;28;20021;-81
2023/04/22 13:10:54;;;;;;;1.75;0.30;;;;;;;;;;5044353;28;20666;-82
2023/04/22 13:13:20;;;;;;;1.10;0.75;;;23.70;67.00;;;;;;5032828;28;20032;-82
2023/04/22 13:15:48;;;;;;;3.65;0.50;;;24.50;61.20;;;;;;5044320;28;20033;-82
2023/04/22 13:18:15;;;;;;;1.13;0.43;;;;;;;;;;5045287;28;20513;-81
2023/04/22 13:20:41;;;;;;;0.77;0.40;;;23.40;76.30;;;;;;5044950;28;20122;-81
2023/04/22 13:23:08;;;;;;;1.75;0.40;;;23.30;69.60;;;;;;5044135;28;20079;-82
2023/04/22 13:25:34;;;;;;;0.50;0.22;;;24.30;71.00;;;;;;5037021;28;20078;-81
2023/04/22 13:28:00;;;;;;;1.45;0.38;;;24.40;80.00;;;;;;5029756;28;20053;-81
2023/04/22 13:30:26;;;;;;;0.73;0.40;;;23.50;73.20;;;;;;5033941;28;20443;-82
2023/04/22 13:32:52;;;;;;;0.52;0.20;;;;;;;;;;5050137;28;20029;-82
2023/04/22 13:35:18;;;;;;;1.60;0.60;;;;;;;;;;5048864;28;20025;-80
2023/04/22 13:37:45;;;;;;;1.02;0.50;;;;;;;;;;5037629;28;20060;-81
2023/04/22 13:40:11;;;;;;;1.17;0.55;;;;;;;;;;5036981;28;20038;-80
2023/04/22 13:42:37;;;;;;;1.50;0.40;;;;;;;;;;5038903;28;20035;-82
2023/04/22 13:45:03;;;;;;;0.57;0.30;;;;;;;;;;5043100;28;20388;-82
2023/04/22 13:47:29;;;;;;;3.40;0.50;;;;;;;;;;5047597;28;20033;-82
2023/04/22 13:49:56;;;;;;;0.73;0.38;;;;;;;;;;5040794;28;20044;-82
2023/04/22 13:52:22;;;;;;;2.40;0.60;;;;;;;;;;5055853;28;20037;-79
2023/04/22 13:54:48;;;;;;;4.50;0.70;;;;;;;;;;5052957;28;20049;-81
2023/04/22 13:57:14;;;;;;;3.58;0.98;;;24.20;67.10;;;;;;5044666;28;20510;-81
2023/04/22 13:59:40;;;;;;;1.17;0.52;;;23.80;61.40;;;;;;5049663;28;20389;-81
2023/04/22 14:02:06;;;;;;;2.53;1.25;;;;;;;;;;5044811;28;20373;-80
2023/04/22 14:04:32;;;;;;;3.47;0.80;;;;;;;;;;5054628;28;20100;-82
2023/04/22 14:06:58;;;;;;;0.93;0.40;;;;;;;;;;5041486;28;20044;-80
2023/04/22 14:09:25;;;;;;;0.57;0.40;;;;;;;;;;5046538;28;20025;-80
2023/04/22 14:11:51;;;;;;;3.25;1.33;;;;;;;;;;5052439;28;20029;-81
2023/04/22 14:14:16;;;;;;;0.90;0.40;;;;;;;;;;5039979;28;20036;-81
2023/04/22 14:16:42;;;;;;;1.65;0.57;;;22.80;76.60;;;;;;5051316;28;20036;-82
2023/04/22 14:19:09;;;;;;;0.70;0.70;;;;;;;;;;5044739;28;20029;-81
2023/04/22 14:21:34;;;;;;;2.45;0.43;;;23.00;80.80;;;;;;5047980;28;20037;-81